Time;durP1;ratioP1;P1;durP2;ratioP2;P2;SDS_P1;SDS_P2;PMS_P1;PMS_P2;Temp;Humidity;BMP_temperature;BMP_pressure;BME280_temperature;BME280_humidity;BME280_pressure;Samples;Min_cycle;Max_cycle;Signal;HPM_P1;HPM_P2
2022/08/05 00:01:30;;;;;;;12.97;6.80;;;;;;;;;;3326852;42;20102;-54
2022/08/05 00:03:56;;;;;;;12.73;6.95;;;;;;;;;;3333195;42;20272;-57
2022/08/05 00:06:23;;;;;;;15.38;7.55;;;;;;;;;;3331286;42;20093;-55
2022/08/05 00:08:49;;;;;;;12.13;6.90;;;;;;;;;;3336425;42;20311;-56
2022/08/05 00:11:15;;;;;;;13.05;6.65;;;;;;;;;;3341956;42;20104;-55
2022/08/05 00:13:42;;;;;;;12.33;6.70;;;;;;;;;;3332317;42;20172;-55
2022/08/05 00:16:11;;;;;;;11.90;6.57;;;;;;;;;;3333178;42;20085;-58
2022/08/05 00:18:37;;;;;;;11.52;6.97;;;;;;;;;;3333587;42;20191;-54
2022/08/05 00:21:04;;;;;;;15.00;7.30;;;;;;;;;;3332114;42;20144;-54
2022/08/05 00:23:31;;;;;;;13.18;6.95;;;;;;;;;;3336322;42;20137;-56
2022/08/05 00:25:57;;;;;;;13.60;7.60;;;;;;;;;;3326543;42;20108;-55
2022/08/05 00:28:23;;;;;;;16.00;7.00;;;;;;;;;;3329327;42;20103;-62
2022/08/05 00:30:49;;;;;;;12.05;7.15;;;;;;;;;;3327331;42;20093;-56
2022/08/05 00:33:15;;;;;;;14.13;7.22;;;;;;;;;;3329147;42;20093;-55
2022/08/05 00:35:42;;;;;;;14.27;7.10;;;;;;;;;;3331082;42;20101;-55
2022/08/05 00:38:08;;;;;;;13.13;7.63;;;;;;;;;;3339496;42;20167;-54
2022/08/05 00:40:46;;;;;;;14.70;7.35;;;;;;;;;;3333952;42;20120;-55
2022/08/05 00:43:12;;;;;;;10.38;6.85;;;;;;;;;;3328903;42;20199;-55
2022/08/05 00:45:39;;;;;;;14.77;7.40;;;;;;;;;;3343163;42;20116;-55
2022/08/05 00:48:07;;;;;;;11.68;7.20;;;;;;;;;;3333014;42;20106;-55
2022/08/05 00:50:33;;;;;;;13.67;6.80;;;;;;;;;;3328385;42;20167;-55
2022/08/05 00:52:59;;;;;;;17.20;7.28;;;;;;;;;;3339452;42;20108;-54
2022/08/05 00:55:25;;;;;;;15.02;7.53;;;;;;;;;;3339226;42;20097;-56
2022/08/05 00:57:52;;;;;;;16.65;7.10;;;;;;;;;;3343599;42;20143;-55
2022/08/05 01:00:18;;;;;;;13.13;6.78;;;;;;;;;;3329549;42;20093;-56
2022/08/05 01:02:44;;;;;;;11.30;6.93;;;;;;;;;;3326475;42;20093;-57
2022/08/05 01:05:11;;;;;;;11.13;6.57;;;;;;;;;;3333004;42;20097;-57
2022/08/05 01:07:37;;;;;;;16.23;7.93;;;;;;;;;;3339434;42;20093;-55
2022/08/05 01:10:04;;;;;;;16.15;7.20;;;;;;;;;;3331697;42;20093;-62
2022/08/05 01:12:31;;;;;;;15.90;7.30;;;;;;;;;;3324671;42;20097;-57
2022/08/05 01:15:05;;;;;;;13.20;7.40;;;;;;;;;;3332413;42;20619;-57
2022/08/05 01:17:37;;;;;;;14.40;8.63;;;;;;;;;;3329356;42;20973;-56
2022/08/05 01:20:19;;;;;;;14.85;8.07;;;;;;;;;;3331650;42;20085;-56
2022/08/05 01:22:58;;;;;;;14.80;7.70;;;;;;;;;;3329133;42;20085;-57
2022/08/05 01:25:56;;;;;;;13.15;7.50;;;;;;;;;;3332727;42;20562;-57
2022/08/05 01:28:41;;;;;;;11.77;6.90;;;;;;;;;;3334464;42;20495;-57
2022/08/05 01:31:20;;;;;;;16.33;7.05;;;;;;;;;;3327801;42;20097;-54
2022/08/05 01:33:49;;;;;;;14.68;7.85;;;;;;;;;;3333041;42;20535;-55
2022/08/05 01:36:16;;;;;;;13.05;6.82;;;;;;;;;;3331520;42;20108;-58
2022/08/05 01:38:45;;;;;;;15.10;7.30;;;;;;;;;;3326031;42;20100;-57
2022/08/05 01:41:13;;;;;;;13.43;7.00;;;;;;;;;;3320895;42;20100;-54
2022/08/05 01:43:39;;;;;;;12.38;6.63;;;;;;;;;;3326028;42;20626;-58
2022/08/05 01:46:05;;;;;;;13.82;7.80;;;;;;;;;;3313408;42;20097;-56
2022/08/05 01:48:31;;;;;;;13.05;6.80;;;;;;;;;;3324411;42;20145;-56
2022/08/05 01:50:57;;;;;;;14.30;6.63;;;;;;;;;;3324649;42;20100;-57
2022/08/05 01:53:24;;;;;;;11.83;6.23;;;;;;;;;;3331799;42;20085;-55
2022/08/05 01:55:51;;;;;;;11.70;6.75;;;;;;;;;;3330935;42;20093;-57
2022/08/05 01:58:17;;;;;;;15.93;7.55;;;;;;;;;;3329116;42;20096;-58
2022/08/05 02:00:47;;;;;;;18.67;7.50;;;;;;;;;;3326932;42;20165;-56
2022/08/05 02:03:37;;;;;;;14.98;6.97;;;;;;;;;;3331532;42;20093;-56
2022/08/05 02:06:04;;;;;;;12.70;7.10;;;;;;;;;;3337106;42;20548;-54
2022/08/05 02:08:31;;;;;;;16.52;7.40;;;;;;;;;;3333655;42;20100;-55
2022/08/05 02:11:09;;;;;;;19.13;7.35;;;;;;;;;;3314832;42;20093;-61
2022/08/05 02:13:58;;;;;;;10.82;6.60;;;;;;;;;;3316445;42;20156;-55
2022/08/05 02:16:33;;;;;;;13.57;6.63;;;;;;;;;;3309204;42;20089;-54
2022/08/05 02:19:18;;;;;;;13.97;6.30;;;;;;;;;;3326074;42;20483;-56
2022/08/05 02:21:48;;;;;;;12.23;6.35;;;;;;;;;;3318373;42;20159;-57
2022/08/05 02:24:17;;;;;;;10.65;6.05;;;;;;;;;;3322672;42;20181;-54
2022/08/05 02:27:02;;;;;;;11.05;5.43;;;;;;;;;;3332670;42;20081;-56
2022/08/05 02:29:28;;;;;;;9.35;5.22;;;;;;;;;;3332426;42;20099;-57
2022/08/05 02:31:56;;;;;;;11.27;6.00;;;;;;;;;;3323547;42;20681;-56
2022/08/05 02:34:22;;;;;;;14.18;7.28;;;;;;;;;;3328683;42;20621;-57
2022/08/05 02:36:50;;;;;;;11.95;6.05;;;;;;;;;;3335593;42;20080;-56
2022/08/05 02:39:17;;;;;;;14.95;6.68;;;;;;;;;;3328936;42;20107;-55
2022/08/05 02:41:46;;;;;;;14.07;6.97;;;;;;;;;;3323807;42;20099;-55
2022/08/05 02:44:12;;;;;;;14.20;6.50;;;;;;;;;;3321167;42;20104;-56
2022/08/05 02:46:39;;;;;;;12.00;6.10;;;;;;;;;;3324074;42;20614;-55
2022/08/05 02:49:05;;;;;;;11.75;6.18;;;;;;;;;;3329754;42;20578;-56
2022/08/05 02:51:31;;;;;;;11.20;6.30;;;;;;;;;;3323978;42;20101;-57
2022/08/05 02:53:57;;;;;;;11.57;5.80;;;;;;;;;;3329397;42;20080;-55
2022/08/05 02:56:25;;;;;;;11.33;6.13;;;;;;;;;;3314508;42;20089;-56
2022/08/05 02:58:52;;;;;;;11.88;5.90;;;;;;;;;;3332543;42;20139;-54
2022/08/05 03:01:19;;;;;;;15.20;6.00;;;;;;;;;;3331152;42;20132;-56
2022/08/05 03:03:48;;;;;;;12.07;6.15;;;;;;;;;;3330402;42;20494;-55
2022/08/05 03:06:14;;;;;;;12.68;6.38;;;;;;;;;;3336553;42;20085;-56
2022/08/05 03:08:40;;;;;;;9.87;5.50;;;;;;;;;;3331470;42;20085;-55
2022/08/05 03:11:20;;;;;;;13.10;6.00;;;;;;;;;;3317033;42;20085;-57
2022/08/05 03:13:46;;;;;;;12.02;5.72;;;;;;;;;;3331345;42;20097;-56
2022/08/05 03:16:13;;;;;;;11.40;5.68;;;;;;;;;;3335620;42;20167;-57
2022/08/05 03:18:39;;;;;;;13.43;5.90;;;;;;;;;;3327600;42;20096;-57
2022/08/05 03:21:05;;;;;;;11.73;5.73;;;;;;;;;;3329718;42;20101;-57
2022/08/05 03:23:32;;;;;;;10.48;4.97;;;;;;;;;;3338652;42;20574;-56
2022/08/05 03:25:59;;;;;;;10.05;4.75;;;;;;;;;;3328619;42;20089;-56
2022/08/05 03:28:25;;;;;;;8.32;4.80;;;;;;;;;;3331912;42;20180;-57
2022/08/05 03:30:51;;;;;;;11.35;5.75;;;;;;;;;;3313340;42;20090;-54
2022/08/05 03:33:17;;;;;;;10.83;5.40;;;;;;;;;;3330806;42;20330;-57
2022/08/05 03:35:44;;;;;;;8.80;4.82;;;;;;;;;;3328219;42;20574;-55
2022/08/05 03:38:11;;;;;;;10.10;4.78;;;;;;;;;;3322053;42;20541;-57
2022/08/05 03:40:44;;;;;;;11.07;4.65;;;;;;;;;;3332942;42;20163;-58
2022/08/05 03:43:10;;;;;;;15.32;4.88;;;;;;;;;;3332798;42;20151;-54
2022/08/05 03:45:36;;;;;;;14.60;4.90;;;;;;;;;;3326996;42;20085;-55
2022/08/05 03:48:03;;;;;;;8.40;4.30;;;;;;;;;;3337106;42;20167;-53
2022/08/05 03:50:36;;;;;;;9.93;4.50;;;;;;;;;;3336466;42;20100;-53
2022/08/05 03:53:06;;;;;;;9.07;4.55;;;;;;;;;;3324184;42;20085;-57
2022/08/05 03:55:36;;;;;;;8.23;4.65;;;;;;;;;;3324006;42;20108;-57
2022/08/05 03:58:03;;;;;;;9.23;4.40;;;;;;;;;;3324238;42;20566;-56
2022/08/05 04:00:31;;;;;;;11.20;4.55;;;;;;;;;;3325984;42;20498;-54
2022/08/05 04:02:58;;;;;;;14.80;4.70;;;;;;;;;;3325336;42;20596;-54
2022/08/05 04:05:27;;;;;;;10.25;4.40;;;;;;;;;;3328323;42;20103;-56
2022/08/05 04:07:53;;;;;;;10.02;4.28;;;;;;;;;;3321528;42;20092;-54
2022/08/05 04:10:19;;;;;;;14.47;4.40;;;;;;;;;;3333220;42;20115;-56
2022/08/05 04:12:46;;;;;;;11.20;4.35;;;;;;;;;;3325558;42;20101;-56
2022/08/05 04:15:12;;;;;;;13.52;4.50;;;;;;;;;;3329478;42;20100;-55
2022/08/05 04:17:38;;;;;;;11.93;4.45;;;;;;;;;;3338290;42;20105;-54
2022/08/05 04:20:05;;;;;;;11.23;4.40;;;;;;;;;;3334838;42;20108;-53
2022/08/05 04:22:31;;;;;;;10.40;4.27;;;;;;;;;;3334645;42;20109;-56
2022/08/05 04:24:57;;;;;;;12.20;4.38;;;;;;;;;;3333279;42;20100;-56
2022/08/05 04:27:23;;;;;;;12.25;4.07;;;;;;;;;;3334038;42;20116;-53
2022/08/05 04:29:49;;;;;;;12.63;3.92;;;;;;;;;;3333425;42;20124;-54
2022/08/05 04:32:15;;;;;;;9.85;4.25;;;;;;;;;;3327595;42;20093;-54
2022/08/05 04:34:41;;;;;;;11.53;3.90;;;;;;;;;;3338570;42;20598;-57
2022/08/05 04:37:08;;;;;;;11.45;4.05;;;;;;;;;;3327464;42;20089;-54
2022/08/05 04:39:34;;;;;;;11.07;4.03;;;;;;;;;;3330471;42;20151;-55
2022/08/05 04:42:00;;;;;;;12.60;4.13;;;;;;;;;;3332352;42;20155;-51
2022/08/05 04:44:26;;;;;;;10.82;4.55;;;;;;;;;;3329578;42;20089;-59
2022/08/05 04:46:52;;;;;;;11.03;4.40;;;;;;;;;;3333273;42;20522;-51
2022/08/05 04:49:18;;;;;;;11.82;4.40;;;;;;;;;;3329733;42;20128;-55
2022/08/05 04:51:45;;;;;;;8.98;4.03;;;;;;;;;;3329808;42;20093;-57
2022/08/05 04:54:13;;;;;;;15.77;4.88;;;;;;;;;;3347034;42;20097;-57
2022/08/05 04:56:39;;;;;;;12.27;4.35;;;;;;;;;;3336110;42;20559;-53
2022/08/05 04:59:05;;;;;;;21.20;4.53;;;;;;;;;;3332516;42;20544;-54
2022/08/05 05:01:32;;;;;;;11.55;4.20;;;;;;;;;;3338181;42;20091;-54
2022/08/05 05:03:58;;;;;;;11.20;4.18;;;;;;;;;;3329768;42;20340;-54
2022/08/05 05:06:24;;;;;;;12.65;4.53;;;;;;;;;;3337960;42;20153;-52
2022/08/05 05:08:51;;;;;;;8.68;4.30;;;;;;;;;;3342366;42;20088;-53
2022/08/05 05:11:17;;;;;;;10.23;4.10;;;;;;;;;;3329117;42;20108;-51
2022/08/05 05:13:43;;;;;;;10.48;3.90;;;;;;;;;;3345907;42;20164;-55
2022/08/05 05:16:09;;;;;;;12.18;4.28;;;;;;;;;;3335504;42;20586;-55
2022/08/05 05:18:35;;;;;;;13.70;4.57;;;;;;;;;;3329387;42;20091;-54
2022/08/05 05:21:02;;;;;;;10.35;4.38;;;;;;;;;;3337098;42;20088;-56
2022/08/05 05:23:28;;;;;;;10.03;4.23;;;;;;;;;;3330050;42;20164;-55
2022/08/05 05:25:54;;;;;;;11.18;4.55;;;;;;;;;;3341111;42;20100;-56
2022/08/05 05:28:20;;;;;;;16.23;4.80;;;;;;;;;;3332569;42;20093;-55
2022/08/05 05:30:47;;;;;;;12.48;4.50;;;;;;;;;;3332533;42;20113;-55
2022/08/05 05:33:13;;;;;;;11.77;4.20;;;;;;;;;;3329808;42;20156;-54
2022/08/05 05:35:39;;;;;;;9.20;3.63;;;;;;;;;;3332522;42;20089;-54
2022/08/05 05:38:06;;;;;;;13.35;4.40;;;;;;;;;;3332886;42;20092;-54
2022/08/05 05:40:33;;;;;;;10.15;3.60;;;;;;;;;;3325615;42;20101;-52
2022/08/05 05:42:59;;;;;;;8.27;3.60;;;;;;;;;;3344301;42;20498;-51
2022/08/05 05:45:25;;;;;;;15.02;4.78;;;;;;;;;;3328401;42;20093;-55
2022/08/05 05:47:51;;;;;;;12.87;4.00;;;;;;;;;;3343241;42;20098;-50
2022/08/05 05:50:18;;;;;;;8.00;3.45;;;;;;;;;;3328867;42;20548;-54
2022/08/05 05:52:45;;;;;;;7.10;3.40;;;;;;;;;;3329149;42;20571;-55
2022/08/05 05:55:12;;;;;;;11.23;3.53;;;;;;;;;;3325582;42;20175;-55
2022/08/05 05:57:39;;;;;;;8.20;3.25;;;;;;;;;;3329599;42;20092;-54
2022/08/05 06:00:08;;;;;;;9.40;3.10;;;;;;;;;;3343797;42;20484;-52
2022/08/05 06:02:36;;;;;;;11.75;3.40;;;;;;;;;;3333817;42;20100;-55
2022/08/05 06:05:02;;;;;;;9.68;3.38;;;;;;;;;;3328082;42;20560;-55
2022/08/05 06:07:28;;;;;;;9.25;3.70;;;;;;;;;;3342112;42;20099;-55
2022/08/05 06:09:54;;;;;;;7.45;3.13;;;;;;;;;;3345984;42;20085;-56
2022/08/05 06:12:21;;;;;;;6.67;3.13;;;;;;;;;;3327556;42;20080;-56
2022/08/05 06:14:47;;;;;;;8.48;2.80;;;;;;;;;;3328052;42;20093;-57
2022/08/05 06:17:13;;;;;;;8.30;2.90;;;;;;;;;;3337412;42;20147;-54
2022/08/05 06:19:39;;;;;;;7.50;2.80;;;;;;;;;;3327232;42;20094;-52
2022/08/05 06:22:06;;;;;;;7.28;2.97;;;;;;;;;;3336254;42;20558;-56
2022/08/05 06:24:33;;;;;;;7.67;2.70;;;;;;;;;;3326877;42;20081;-54
2022/08/05 06:26:59;;;;;;;6.28;2.50;;;;;;;;;;3338586;42;20089;-55
2022/08/05 06:29:25;;;;;;;7.28;2.83;;;;;;;;;;3326504;42;20081;-52
2022/08/05 06:31:52;;;;;;;10.55;3.08;;;;;;;;;;3327074;42;20096;-53
2022/08/05 06:34:18;;;;;;;8.10;3.10;;;;;;;;;;3324848;42;20152;-52
2022/08/05 06:36:44;;;;;;;6.87;2.70;;;;;;;;;;3329739;42;20089;-56
2022/08/05 06:39:10;;;;;;;9.18;2.70;;;;;;;;;;3331062;42;20623;-53
2022/08/05 06:41:36;;;;;;;6.47;2.55;;;;;;;;;;3336529;42;20592;-53
2022/08/05 06:44:03;;;;;;;5.85;2.60;;;;;;;;;;3330979;42;20164;-53
2022/08/05 06:46:29;;;;;;;10.43;3.85;;;;;;;;;;3335963;42;20108;-54
2022/08/05 06:48:57;;;;;;;7.30;2.70;;;;;;;;;;3337898;42;20165;-53
2022/08/05 06:51:23;;;;;;;9.35;3.03;;;;;;;;;;3330217;42;20089;-55
2022/08/05 06:53:49;;;;;;;9.55;3.80;;;;;;;;;;3323519;42;20101;-56
2022/08/05 06:56:17;;;;;;;8.18;3.30;;;;;;;;;;3327367;42;20107;-54
2022/08/05 06:58:44;;;;;;;8.45;3.50;;;;;;;;;;3325178;42;20093;-61
2022/08/05 07:01:10;;;;;;;11.50;4.57;;;;;;;;;;3331833;42;20093;-54
2022/08/05 07:03:36;;;;;;;12.77;5.10;;;;;;;;;;3331819;42;20085;-53
2022/08/05 07:06:03;;;;;;;13.27;5.43;;;;;;;;;;3327687;42;20634;-52
2022/08/05 07:08:29;;;;;;;14.75;4.90;;;;;;;;;;3346149;42;20100;-55
2022/08/05 07:10:55;;;;;;;10.98;4.43;;;;;;;;;;3327315;42;20128;-56
2022/08/05 07:18:51;;;;;;;10.68;3.75;;;;;;;;;;3337514;42;20089;-53
2022/08/05 07:21:17;;;;;;;9.05;3.80;;;;;;;;;;3326159;42;20101;-54
2022/08/05 07:23:44;;;;;;;8.85;3.83;;;;;;;;;;3338766;42;20081;-55
2022/08/05 07:26:10;;;;;;;11.73;3.70;;;;;;;;;;3323585;42;20104;-55
2022/08/05 07:28:36;;;;;;;8.13;3.53;;;;;;;;;;3337912;42;20112;-53
2022/08/05 07:31:02;;;;;;;10.30;3.85;;;;;;;;;;3334348;42;20117;-54
2022/08/05 07:33:28;;;;;;;11.18;4.30;;;;;;;;;;3327799;42;20088;-56
2022/08/05 07:35:54;;;;;;;9.25;3.88;;;;;;;;;;3330085;42;20097;-55
2022/08/05 07:38:21;;;;;;;8.47;3.73;;;;;;;;;;3337312;42;20097;-56
2022/08/05 07:40:47;;;;;;;8.00;3.60;;;;;;;;;;3333739;42;20108;-55
2022/08/05 07:43:13;;;;;;;11.38;4.10;;;;;;;;;;3327063;42;20592;-53
2022/08/05 07:45:41;;;;;;;9.23;3.92;;;;;;;;;;3335868;42;20092;-53
2022/08/05 07:48:07;;;;;;;18.55;4.65;;;;;;;;;;3326690;42;20107;-55
2022/08/05 07:50:33;;;;;;;8.50;3.90;;;;;;;;;;3329163;42;20164;-55
2022/08/05 07:52:59;;;;;;;7.85;3.40;;;;;;;;;;3338192;42;20502;-56
2022/08/05 07:55:25;;;;;;;9.52;3.63;;;;;;;;;;3325903;42;20137;-55
2022/08/05 07:57:52;;;;;;;8.07;3.60;;;;;;;;;;3332227;42;20191;-55
2022/08/05 08:00:18;;;;;;;7.22;3.80;;;;;;;;;;3339568;42;20097;-57
2022/08/05 08:02:44;;;;;;;10.47;3.43;;;;;;;;;;3335119;42;20111;-55
2022/08/05 08:05:10;;;;;;;7.60;3.05;;;;;;;;;;3340977;42;20806;-58
2022/08/05 08:07:36;;;;;;;8.57;2.95;;;;;;;;;;3326302;42;20116;-54
2022/08/05 08:10:03;;;;;;;5.30;2.15;;;;;;;;;;3332039;42;20168;-57
2022/08/05 08:12:30;;;;;;;5.38;1.98;;;;;;;;;;3335354;42;20123;-56
2022/08/05 08:14:56;;;;;;;4.87;1.60;;;;;;;;;;3329813;42;20574;-55
2022/08/05 08:17:22;;;;;;;4.85;1.83;;;;;;;;;;3333788;42;20567;-56
2022/08/05 08:19:48;;;;;;;6.88;2.30;;;;;;;;;;3326692;42;20555;-55
2022/08/05 08:22:14;;;;;;;6.95;2.17;;;;;;;;;;3328460;42;20089;-56
2022/08/05 08:24:41;;;;;;;7.60;2.13;;;;;;;;;;3325853;42;20169;-56
2022/08/05 08:27:07;;;;;;;4.93;1.50;;;;;;;;;;3332007;42;20548;-55
2022/08/05 08:29:33;;;;;;;6.25;1.98;;;;;;;;;;3337675;42;20163;-55
2022/08/05 08:31:59;;;;;;;5.95;1.88;;;;;;;;;;3336536;42;20107;-55
2022/08/05 08:34:25;;;;;;;8.57;1.90;;;;;;;;;;3340537;42;20097;-54
2022/08/05 08:36:52;;;;;;;5.63;2.00;;;;;;;;;;3334975;42;20511;-51
2022/08/05 08:39:18;;;;;;;5.70;1.60;;;;;;;;;;3336700;42;20107;-53
2022/08/05 08:41:47;;;;;;;5.50;1.67;;;;;;;;;;3328742;42;20085;-55
2022/08/05 08:44:17;;;;;;;4.88;1.88;;;;;;;;;;3338388;42;20687;-57
2022/08/05 08:46:44;;;;;;;5.05;1.75;;;;;;;;;;3340657;42;20116;-55
2022/08/05 08:49:13;;;;;;;5.80;1.60;;;;;;;;;;3328035;42;20132;-55
2022/08/05 08:51:40;;;;;;;5.10;1.80;;;;;;;;;;3325028;42;20097;-55
2022/08/05 08:54:07;;;;;;;5.30;1.88;;;;;;;;;;3332095;42;20156;-56
2022/08/05 08:56:33;;;;;;;5.60;1.60;;;;;;;;;;3335208;42;20507;-54
2022/08/05 08:58:59;;;;;;;6.30;1.90;;;;;;;;;;3330444;42;20092;-56
2022/08/05 09:01:26;;;;;;;4.88;1.80;;;;;;;;;;3338929;42;20216;-55
2022/08/05 09:03:52;;;;;;;5.60;1.80;;;;;;;;;;3324276;42;20093;-55
2022/08/05 09:06:19;;;;;;;5.18;2.00;;;;;;;;;;3329637;42;20148;-56
2022/08/05 09:08:45;;;;;;;4.80;1.65;;;;;;;;;;3321748;42;20092;-54
2022/08/05 09:11:12;;;;;;;5.38;1.70;;;;;;;;;;3328831;42;20100;-56
2022/08/05 09:13:38;;;;;;;6.35;1.80;;;;;;;;;;3321631;42;20502;-57
2022/08/05 09:16:07;;;;;;;5.37;1.90;;;;;;;;;;3328280;42;20101;-56
2022/08/05 09:18:35;;;;;;;4.93;1.75;;;;;;;;;;3319074;42;20220;-54
2022/08/05 09:21:01;;;;;;;6.63;2.40;;;;;;;;;;3328972;42;20441;-56
2022/08/05 09:23:28;;;;;;;5.35;2.17;;;;;;;;;;3323602;42;20089;-55
2022/08/05 09:26:09;;;;;;;6.50;1.95;;;;;;;;;;3323955;42;20155;-55
2022/08/05 09:28:36;;;;;;;5.20;1.90;;;;;;;;;;3341511;42;20104;-56
2022/08/05 09:31:07;;;;;;;5.53;1.73;;;;;;;;;;3328262;42;20100;-56
2022/08/05 09:34:10;;;;;;;5.63;1.80;;;;;;;;;;3333438;42;20100;-55
2022/08/05 09:36:51;;;;;;;5.05;1.70;;;;;;;;;;3332249;42;20495;-54
2022/08/05 09:39:18;;;;;;;5.93;1.85;;;;;;;;;;3347562;42;20136;-56
2022/08/05 09:41:57;;;;;;;9.00;3.30;;;;;;;;;;3331361;42;20156;-53
2022/08/05 09:44:40;;;;;;;7.50;3.25;;;;;;;;;;3332029;42;20096;-56
2022/08/05 09:47:14;;;;;;;7.60;3.30;;;;;;;;;;3324037;42;20085;-56
2022/08/05 09:49:47;;;;;;;8.68;3.08;;;;;;;;;;3332354;42;20529;-58
2022/08/05 09:52:26;;;;;;;7.68;3.28;;;;;;;;;;3326948;42;20161;-55
2022/08/05 09:55:00;;;;;;;9.63;3.20;;;;;;;;;;3334725;42;20219;-56
2022/08/05 09:57:44;;;;;;;8.95;3.25;;;;;;;;;;3342262;42;20097;-55
2022/08/05 10:00:18;;;;;;;7.30;2.75;;;;;;;;;;3331196;42;20093;-57
2022/08/05 10:02:49;;;;;;;7.53;2.70;;;;;;;;;;3328005;42;20089;-57
2022/08/05 10:05:19;;;;;;;8.25;3.10;;;;;;;;;;3332477;42;20097;-56
2022/08/05 10:07:48;;;;;;;10.23;2.80;;;;;;;;;;3325670;42;20089;-58
2022/08/05 10:10:15;;;;;;;7.32;3.35;;;;;;;;;;3341893;42;20089;-55
2022/08/05 10:12:55;;;;;;;7.72;3.25;;;;;;;;;;3332042;42;20642;-57
2022/08/05 10:15:26;;;;;;;7.93;3.20;;;;;;;;;;3335351;42;20093;-55
2022/08/05 10:18:10;;;;;;;5.43;2.40;;;;;;;;;;3337918;42;20093;-55
2022/08/05 10:20:38;;;;;;;8.43;2.80;;;;;;;;;;3338301;42;20089;-55
2022/08/05 10:23:04;;;;;;;6.20;2.72;;;;;;;;;;3335093;42;20104;-56
2022/08/05 10:25:31;;;;;;;9.75;2.90;;;;;;;;;;3336316;42;20097;-55
2022/08/05 10:27:57;;;;;;;8.00;2.53;;;;;;;;;;3335666;42;20175;-54
2022/08/05 10:30:23;;;;;;;6.95;2.40;;;;;;;;;;3329342;42;20187;-56
2022/08/05 10:32:49;;;;;;;6.17;2.37;;;;;;;;;;3330831;42;20100;-55
2022/08/05 10:35:16;;;;;;;9.57;2.45;;;;;;;;;;3338310;42;20085;-59
2022/08/05 10:37:42;;;;;;;6.47;2.35;;;;;;;;;;3330846;42;20105;-55
2022/08/05 10:40:21;;;;;;;6.28;2.80;;;;;;;;;;3323550;42;20091;-55
2022/08/05 10:42:49;;;;;;;6.65;2.47;;;;;;;;;;3335952;42;20106;-55
2022/08/05 10:45:15;;;;;;;6.60;2.90;;;;;;;;;;3318789;42;20760;-56
2022/08/05 10:47:43;;;;;;;5.50;2.33;;;;;;;;;;3326249;42;20092;-53
2022/08/05 10:50:13;;;;;;;6.85;2.60;;;;;;;;;;3341795;42;20480;-55
2022/08/05 10:52:52;;;;;;;5.75;2.42;;;;;;;;;;3326244;42;20099;-55
2022/08/05 10:55:18;;;;;;;9.13;2.53;;;;;;;;;;3334774;42;20164;-54
2022/08/05 10:57:45;;;;;;;8.07;2.43;;;;;;;;;;3335898;42;20556;-54
2022/08/05 11:00:22;;;;;;;6.18;2.40;;;;;;;;;;3341223;42;20100;-55
2022/08/05 11:03:10;;;;;;;5.95;2.45;;;;;;;;;;3327227;42;20604;-55
2022/08/05 11:05:37;;;;;;;6.47;2.42;;;;;;;;;;3327544;42;20093;-54
2022/08/05 11:08:12;;;;;;;5.88;2.38;;;;;;;;;;3328067;42;20141;-53
2022/08/05 11:10:42;;;;;;;6.00;2.30;;;;;;;;;;3325063;42;20088;-54
2022/08/05 11:13:08;;;;;;;5.78;2.10;;;;;;;;;;3326962;42;20156;-57
2022/08/05 11:15:42;;;;;;;5.50;2.50;;;;;;;;;;3321837;42;20112;-56
2022/08/05 11:18:28;;;;;;;7.78;2.30;;;;;;;;;;3324692;42;20578;-54
2022/08/05 11:20:55;;;;;;;5.53;2.30;;;;;;;;;;3327702;42;20140;-56
2022/08/05 11:23:34;;;;;;;6.73;2.13;;;;;;;;;;3327121;42;20164;-56
2022/08/05 11:26:12;;;;;;;6.75;2.60;;;;;;;;;;3330626;42;20187;-55
2022/08/05 11:28:41;;;;;;;6.75;2.53;;;;;;;;;;3325719;42;20096;-59
2022/08/05 11:31:08;;;;;;;6.75;2.50;;;;;;;;;;3330810;42;20171;-55
2022/08/05 11:33:47;;;;;;;5.22;2.30;;;;;;;;;;3325919;42;20180;-55
2022/08/05 11:36:15;;;;;;;7.00;2.27;;;;;;;;;;3327381;42;20089;-55
2022/08/05 11:38:41;;;;;;;6.35;2.50;;;;;;;;;;3333801;42;20089;-57
2022/08/05 11:41:17;;;;;;;7.13;2.70;;;;;;;;;;3327375;42;20590;-57
2022/08/05 11:43:52;;;;;;;5.50;2.70;;;;;;;;;;3325850;42;20570;-57
2022/08/05 11:46:41;;;;;;;5.88;2.60;;;;;;;;;;3327622;42;20081;-55
2022/08/05 11:49:12;;;;;;;6.23;2.80;;;;;;;;;;3323454;42;20093;-54
2022/08/05 11:51:49;;;;;;;7.68;3.30;;;;;;;;;;3326572;42;20100;-56
2022/08/05 11:54:26;;;;;;;6.72;3.03;;;;;;;;;;3334884;42;20099;-55
2022/08/05 11:56:55;;;;;;;9.73;2.92;;;;;;;;;;3326986;42;20186;-56
2022/08/05 11:59:24;;;;;;;6.45;2.60;;;;;;;;;;3328766;42;20164;-58
2022/08/05 12:02:01;;;;;;;10.83;2.97;;;;;;;;;;3333408;42;20093;-57
2022/08/05 12:04:39;;;;;;;5.93;2.60;;;;;;;;;;3330602;42;20085;-58
2022/08/05 12:07:06;;;;;;;6.80;2.60;;;;;;;;;;3321909;42;20205;-56
2022/08/05 12:09:36;;;;;;;6.20;2.70;;;;;;;;;;3327783;42;20100;-56
2022/08/05 12:12:04;;;;;;;8.75;2.90;;;;;;;;;;3324411;42;20100;-57
2022/08/05 12:14:40;;;;;;;5.80;2.60;;;;;;;;;;3339273;42;20145;-55
2022/08/05 12:17:11;;;;;;;6.18;3.00;;;;;;;;;;3334906;42;20101;-56
2022/08/05 12:19:48;;;;;;;8.95;2.70;;;;;;;;;;3326365;42;20097;-55
2022/08/05 12:22:16;;;;;;;5.78;2.60;;;;;;;;;;3330112;42;20085;-59
2022/08/05 12:24:48;;;;;;;8.10;2.70;;;;;;;;;;3327208;42;20988;-55
2022/08/05 12:27:22;;;;;;;6.77;2.80;;;;;;;;;;3330577;42;20085;-56
2022/08/05 12:30:00;;;;;;;10.40;3.00;;;;;;;;;;3323692;42;20093;-56
2022/08/05 12:32:27;;;;;;;9.23;3.22;;;;;;;;;;3324541;42;20081;-55
2022/08/05 12:34:53;;;;;;;12.68;4.13;;;;;;;;;;3332340;42;20686;-56
2022/08/05 12:37:19;;;;;;;6.80;3.47;;;;;;;;;;3325775;42;20096;-58
2022/08/05 12:39:45;;;;;;;7.90;3.67;;;;;;;;;;3322849;42;20081;-56
2022/08/05 12:42:15;;;;;;;7.88;3.60;;;;;;;;;;3317251;42;20107;-55
2022/08/05 12:44:43;;;;;;;8.60;3.63;;;;;;;;;;3331649;42;20088;-55
2022/08/05 12:47:09;;;;;;;9.35;3.20;;;;;;;;;;3335260;42;20674;-57
2022/08/05 12:49:48;;;;;;;6.75;3.50;;;;;;;;;;3332977;42;20519;-57
2022/08/05 12:52:15;;;;;;;11.87;4.00;;;;;;;;;;3333617;42;20092;-56
2022/08/05 12:54:42;;;;;;;6.78;3.60;;;;;;;;;;3340287;42;20099;-57
2022/08/05 12:57:10;;;;;;;9.90;3.53;;;;;;;;;;3319123;42;20101;-55
2022/08/05 12:59:53;;;;;;;8.60;4.03;;;;;;;;;;3328819;42;20085;-55
2022/08/05 13:02:20;;;;;;;8.25;3.65;;;;;;;;;;3333716;42;20563;-61
2022/08/05 13:04:47;;;;;;;11.23;3.80;;;;;;;;;;3333455;42;20105;-58
2022/08/05 13:07:16;;;;;;;8.05;3.60;;;;;;;;;;3338749;42;20097;-53
2022/08/05 13:09:47;;;;;;;7.68;3.55;;;;;;;;;;3342152;42;20093;-55
2022/08/05 13:12:14;;;;;;;11.55;3.90;;;;;;;;;;3325185;42;20568;-61
2022/08/05 13:14:43;;;;;;;7.55;3.45;;;;;;;;;;3332329;42;20551;-62
2022/08/05 13:17:20;;;;;;;7.73;3.53;;;;;;;;;;3333019;42;20506;-57
2022/08/05 13:20:06;;;;;;;8.35;3.55;;;;;;;;;;3331024;42;20115;-55
2022/08/05 13:22:33;;;;;;;8.60;3.45;;;;;;;;;;3327620;42;20221;-54
2022/08/05 13:25:00;;;;;;;8.88;3.92;;;;;;;;;;3331602;42;20152;-53
2022/08/05 13:27:31;;;;;;;8.40;3.85;;;;;;;;;;3339271;42;20148;-54
2022/08/05 13:29:58;;;;;;;11.63;5.00;;;;;;;;;;3343187;42;20085;-56
2022/08/05 13:32:25;;;;;;;10.63;5.03;;;;;;;;;;3327982;42;20712;-53
2022/08/05 13:34:51;;;;;;;9.48;4.55;;;;;;;;;;3323937;42;20097;-56
2022/08/05 13:37:18;;;;;;;8.63;3.72;;;;;;;;;;3338120;42;20173;-49
2022/08/05 13:39:44;;;;;;;7.07;3.55;;;;;;;;;;3338057;42;20575;-61
2022/08/05 13:42:10;;;;;;;7.53;3.57;;;;;;;;;;3327240;42;20559;-62
2022/08/05 13:44:36;;;;;;;9.05;3.45;;;;;;;;;;3323368;42;20097;-61
2022/08/05 13:47:03;;;;;;;7.22;3.60;;;;;;;;;;3338322;42;20244;-62
2022/08/05 13:49:29;;;;;;;6.82;3.40;;;;;;;;;;3334970;42;20089;-62
2022/08/05 13:51:55;;;;;;;7.57;3.53;;;;;;;;;;3336985;42;20147;-62
2022/08/05 13:54:25;;;;;;;8.53;3.40;;;;;;;;;;3327223;42;20097;-61
2022/08/05 13:56:51;;;;;;;8.48;3.40;;;;;;;;;;3330486;42;20101;-62
2022/08/05 13:59:19;;;;;;;8.80;3.50;;;;;;;;;;3323658;42;20101;-61
2022/08/05 14:01:45;;;;;;;8.98;3.40;;;;;;;;;;3335838;42;20510;-61
2022/08/05 14:06:56;;;;;;;9.53;3.37;;;;;;;;;;3330991;42;20160;-62
2022/08/05 14:09:22;;;;;;;10.13;3.83;;;;;;;;;;3329410;42;20091;-63
2022/08/05 14:11:48;;;;;;;10.45;3.55;;;;;;;;;;3326089;42;20096;-64
2022/08/05 14:14:15;;;;;;;10.25;3.72;;;;;;;;;;3338378;42;20149;-64
2022/08/05 14:16:41;;;;;;;8.80;3.60;;;;;;;;;;3322212;42;20843;-64
2022/08/05 14:19:07;;;;;;;9.43;3.60;;;;;;;;;;3339885;42;20096;-63
2022/08/05 14:21:33;;;;;;;9.93;3.63;;;;;;;;;;3327758;42;20085;-62
2022/08/05 14:23:59;;;;;;;7.80;3.50;;;;;;;;;;3330382;42;20092;-63
2022/08/05 14:26:26;;;;;;;8.98;3.60;;;;;;;;;;3336480;42;20081;-62
2022/08/05 14:28:52;;;;;;;9.52;3.60;;;;;;;;;;3323274;42;20116;-63
2022/08/05 14:31:19;;;;;;;9.20;3.70;;;;;;;;;;3337824;42;20165;-63
2022/08/05 14:33:45;;;;;;;9.57;3.45;;;;;;;;;;3343759;42;20088;-62
2022/08/05 14:36:11;;;;;;;7.00;3.63;;;;;;;;;;3319950;42;20171;-62
2022/08/05 14:38:37;;;;;;;10.07;3.40;;;;;;;;;;3337649;42;20611;-61
2022/08/05 14:41:04;;;;;;;10.10;4.40;;;;;;;;;;3324116;42;20097;-62
2022/08/05 14:43:30;;;;;;;13.63;3.90;;;;;;;;;;3322440;42;20088;-62
2022/08/05 14:45:56;;;;;;;8.75;3.42;;;;;;;;;;3323336;42;20101;-62
2022/08/05 14:48:23;;;;;;;7.95;3.60;;;;;;;;;;3330566;42;20195;-62
2022/08/05 14:50:49;;;;;;;8.40;3.45;;;;;;;;;;3322424;42;20095;-62
2022/08/05 14:53:15;;;;;;;10.63;3.40;;;;;;;;;;3322408;42;20112;-64
2022/08/05 14:55:41;;;;;;;10.40;3.37;;;;;;;;;;3322339;42;20112;-63